Time;durP1;ratioP1;P1;durP2;ratioP2;P2;SDS_P1;SDS_P2;PMS_P1;PMS_P2;Temp;Humidity;BMP_temperature;BMP_pressure;BME280_temperature;BME280_humidity;BME280_pressure;Samples;Min_cycle;Max_cycle;Signal;HPM_P1;HPM_P2
2023/07/30 00:01:28;;;;;;;9.00;2.33;;;19.30;99.90;;;;;;4068422;29;20056;-54
2023/07/30 00:03:32;;;;;;;8.00;2.20;;;19.20;99.90;;;;;;4068168;29;20044;-54
2023/07/30 00:05:34;;;;;;;4.03;1.58;;;19.10;99.90;;;;;;4067021;29;20078;-54
2023/07/30 00:07:36;;;;;;;7.22;1.95;;;19.10;99.90;;;;;;4068030;29;20342;-54
2023/07/30 00:09:39;;;;;;;5.32;1.85;;;19.10;99.90;;;;;;4068234;29;20048;-52
2023/07/30 00:11:41;;;;;;;6.32;2.13;;;19.10;99.90;;;;;;4068121;29;20711;-52
2023/07/30 00:13:43;;;;;;;6.80;2.10;;;19.10;99.90;;;;;;4068020;29;20048;-52
2023/07/30 00:15:46;;;;;;;8.90;1.92;;;19.10;99.90;;;;;;4068143;29;20048;-52
2023/07/30 00:17:49;;;;;;;8.27;2.03;;;19.10;99.90;;;;;;4067402;29;20056;-52
2023/07/30 00:19:52;;;;;;;10.50;2.22;;;19.00;99.90;;;;;;4068086;29;20059;-60
2023/07/30 00:21:54;;;;;;;11.35;2.25;;;19.00;99.90;;;;;;4067920;29;20048;-54
2023/07/30 00:23:56;;;;;;;8.23;2.22;;;19.00;99.90;;;;;;4068184;29;20055;-52
2023/07/30 00:25:58;;;;;;;9.85;2.10;;;19.00;99.90;;;;;;4067492;29;20388;-53
2023/07/30 00:28:01;;;;;;;9.70;2.33;;;18.90;99.90;;;;;;4067151;29;20086;-52
2023/07/30 00:30:03;;;;;;;6.18;2.15;;;19.00;99.90;;;;;;4068317;29;20448;-52
2023/07/30 00:32:06;;;;;;;7.40;2.35;;;19.00;99.90;;;;;;4067973;29;20052;-53
2023/07/30 00:34:08;;;;;;;5.60;1.95;;;18.90;99.90;;;;;;4068569;29;20059;-54
2023/07/30 00:36:11;;;;;;;11.02;2.08;;;19.00;99.90;;;;;;4067768;29;20424;-53
2023/07/30 00:38:15;;;;;;;4.88;1.83;;;18.90;99.90;;;;;;4067969;29;20468;-55
2023/07/30 00:40:18;;;;;;;5.90;1.92;;;18.90;99.90;;;;;;4068467;29;20048;-54
2023/07/30 00:42:20;;;;;;;6.18;1.58;;;18.80;99.90;;;;;;4068044;29;20141;-54
2023/07/30 00:44:26;;;;;;;6.97;1.85;;;18.90;99.90;;;;;;4067713;29;20127;-54
2023/07/30 00:46:28;;;;;;;5.85;1.70;;;18.80;99.90;;;;;;4050484;29;20051;-53
2023/07/30 00:48:30;;;;;;;8.10;1.88;;;18.80;99.90;;;;;;4067772;29;20079;-54
2023/07/30 00:50:33;;;;;;;7.72;2.10;;;18.80;99.90;;;;;;4068023;29;20052;-53
2023/07/30 00:52:37;;;;;;;4.15;1.45;;;18.80;99.90;;;;;;4067733;29;20609;-54
2023/07/30 00:54:39;;;;;;;7.68;2.10;;;18.80;99.90;;;;;;4067963;29;20563;-55
2023/07/30 00:56:50;;;;;;;8.02;1.80;;;18.70;99.90;;;;;;4067373;29;20056;-54
2023/07/30 00:58:53;;;;;;;5.63;1.92;;;18.80;99.90;;;;;;4067593;29;20131;-53
2023/07/30 01:00:56;;;;;;;4.88;1.80;;;18.70;99.90;;;;;;4067752;29;20480;-54
2023/07/30 01:02:59;;;;;;;6.38;2.10;;;18.70;99.90;;;;;;4067625;29;20054;-53
2023/07/30 01:05:01;;;;;;;4.85;2.13;;;18.70;99.90;;;;;;4067622;29;20055;-53
2023/07/30 01:07:04;;;;;;;7.35;2.30;;;18.80;99.90;;;;;;4067189;29;20508;-53
2023/07/30 01:09:07;;;;;;;4.53;1.50;;;18.80;99.90;;;;;;4067725;29;20479;-53
2023/07/30 01:11:10;;;;;;;6.15;1.85;;;18.80;99.90;;;;;;4067706;29;20064;-53
2023/07/30 01:13:13;;;;;;;6.50;1.88;;;18.80;99.90;;;;;;4067281;29;20555;-54
2023/07/30 01:15:15;;;;;;;5.72;1.85;;;18.80;99.90;;;;;;4070558;29;20241;-53
2023/07/30 01:17:18;;;;;;;8.10;1.98;;;18.80;99.90;;;;;;4070124;29;20072;-54
2023/07/30 01:19:20;;;;;;;7.85;2.05;;;18.70;99.90;;;;;;4070687;29;20107;-54
2023/07/30 01:21:23;;;;;;;10.60;2.13;;;18.60;99.90;;;;;;4070672;29;20427;-54
2023/07/30 01:23:26;;;;;;;7.70;2.22;;;18.70;99.90;;;;;;4070243;29;20052;-54
2023/07/30 01:25:33;;;;;;;7.30;2.20;;;18.60;99.90;;;;;;4070495;29;20052;-53
2023/07/30 01:27:41;;;;;;;4.85;1.77;;;18.60;99.90;;;;;;4068500;29;20066;-53
2023/07/30 01:29:51;;;;;;;4.88;1.90;;;18.60;99.90;;;;;;4070331;29;20104;-53
2023/07/30 01:31:57;;;;;;;8.88;1.92;;;18.50;99.90;;;;;;4070591;29;20435;-54
2023/07/30 01:34:01;;;;;;;5.43;1.98;;;18.50;99.90;;;;;;4070599;29;20059;-53
2023/07/30 01:36:04;;;;;;;7.82;1.73;;;18.40;99.90;;;;;;4070647;29;20127;-54
2023/07/30 01:38:09;;;;;;;7.28;2.38;;;18.40;99.90;;;;;;4069844;29;20445;-54
2023/07/30 01:40:13;;;;;;;5.80;1.70;;;18.40;99.90;;;;;;4070542;29;20393;-54
2023/07/30 01:42:15;;;;;;;10.27;2.10;;;18.50;99.90;;;;;;4069880;29;20086;-54
2023/07/30 01:44:17;;;;;;;7.35;1.77;;;18.50;99.90;;;;;;4070657;29;20044;-54
2023/07/30 01:46:19;;;;;;;10.98;2.30;;;18.50;99.90;;;;;;4069759;29;20048;-54
2023/07/30 01:48:22;;;;;;;9.35;2.75;;;18.50;99.90;;;;;;4070077;29;20044;-58
2023/07/30 01:50:24;;;;;;;10.10;2.25;;;18.50;99.90;;;;;;4062683;29;20044;-54
2023/07/30 01:52:26;;;;;;;5.47;2.05;;;18.50;99.90;;;;;;4068922;29;20094;-54
2023/07/30 01:54:29;;;;;;;6.35;1.90;;;18.50;99.90;;;;;;4053650;29;20084;-53
2023/07/30 01:56:31;;;;;;;7.38;1.63;;;18.50;99.90;;;;;;4069350;29;20075;-53
2023/07/30 01:58:34;;;;;;;7.78;2.33;;;18.50;99.90;;;;;;4070556;29;20076;-54
2023/07/30 02:00:36;;;;;;;8.40;2.03;;;18.50;99.90;;;;;;4069985;29;20044;-53
2023/07/30 02:02:38;;;;;;;6.43;2.08;;;18.50;99.90;;;;;;4070584;29;20075;-54
2023/07/30 02:04:40;;;;;;;6.45;1.60;;;18.50;99.90;;;;;;4069084;29;20048;-53
2023/07/30 02:06:42;;;;;;;10.75;2.22;;;18.50;99.90;;;;;;4068087;29;20089;-53
2023/07/30 02:08:44;;;;;;;5.97;1.80;;;18.40;99.90;;;;;;4070069;29;20091;-54
2023/07/30 02:10:56;;;;;;;9.00;2.05;;;18.30;99.90;;;;;;4069850;29;20071;-55
2023/07/30 02:12:58;;;;;;;8.05;1.90;;;18.30;99.90;;;;;;4070400;29;20076;-54
2023/07/30 02:15:00;;;;;;;4.60;1.70;;;18.30;99.90;;;;;;4070075;29;20062;-55
2023/07/30 02:17:02;;;;;;;7.18;1.70;;;18.30;99.90;;;;;;4069434;29;20147;-54
2023/07/30 02:19:05;;;;;;;6.43;1.85;;;18.30;99.90;;;;;;4069936;29;20044;-53
2023/07/30 02:21:07;;;;;;;8.35;2.03;;;18.20;99.90;;;;;;4069818;29;20119;-54
2023/07/30 02:23:09;;;;;;;8.50;2.20;;;18.20;99.90;;;;;;4069491;29;20088;-54
2023/07/30 02:25:11;;;;;;;6.43;2.20;;;18.20;99.90;;;;;;4068080;29;20048;-53
2023/07/30 02:27:15;;;;;;;7.70;2.10;;;18.20;99.90;;;;;;4067883;29;20195;-54
2023/07/30 02:29:17;;;;;;;8.77;1.80;;;18.20;99.90;;;;;;4069897;29;20048;-54
2023/07/30 02:31:19;;;;;;;7.75;2.35;;;18.20;99.90;;;;;;4069793;29;20063;-53
2023/07/30 02:33:21;;;;;;;9.27;2.40;;;18.20;99.90;;;;;;4069653;29;20487;-54
2023/07/30 02:35:23;;;;;;;8.88;2.00;;;18.20;99.90;;;;;;4069626;29;20420;-54
2023/07/30 02:37:25;;;;;;;10.10;2.15;;;18.20;99.90;;;;;;4068870;29;20080;-54
2023/07/30 02:39:27;;;;;;;8.80;2.22;;;18.10;99.90;;;;;;4070058;29;20408;-54
2023/07/30 02:41:29;;;;;;;10.60;2.45;;;18.10;99.90;;;;;;4052878;29;20056;-53
2023/07/30 02:43:33;;;;;;;10.02;2.47;;;18.00;99.90;;;;;;4069427;29;20496;-53
2023/07/30 02:45:35;;;;;;;12.48;2.92;;;18.00;99.90;;;;;;4069559;29;20526;-54
2023/07/30 02:47:37;;;;;;;14.30;2.40;;;18.10;99.90;;;;;;4068924;29;20089;-54
2023/07/30 02:49:39;;;;;;;9.05;2.33;;;18.00;99.90;;;;;;4069362;29;20048;-53
2023/07/30 02:51:43;;;;;;;10.93;2.83;;;17.90;99.90;;;;;;4069210;29;20048;-54
2023/07/30 02:53:45;;;;;;;9.65;2.42;;;17.90;99.90;;;;;;4069122;29;20107;-53
2023/07/30 02:55:47;;;;;;;6.28;1.92;;;17.90;99.90;;;;;;4069454;29;20382;-53
2023/07/30 02:57:49;;;;;;;11.85;2.67;;;17.90;99.90;;;;;;4068885;29;20048;-53
2023/07/30 02:59:52;;;;;;;11.13;2.55;;;17.90;99.90;;;;;;4069549;29;20048;-53
2023/07/30 03:01:54;;;;;;;12.35;2.85;;;17.80;99.90;;;;;;4069860;29;20062;-54
2023/07/30 03:03:56;;;;;;;9.38;2.15;;;17.80;99.90;;;;;;4069193;29;20486;-54
2023/07/30 03:05:58;;;;;;;13.10;2.63;;;17.80;99.90;;;;;;4069351;29;20080;-55
2023/07/30 03:08:00;;;;;;;14.77;2.70;;;17.80;99.90;;;;;;4068186;29;20056;-53
2023/07/30 03:10:03;;;;;;;12.00;2.35;;;17.80;99.90;;;;;;4069110;29;20048;-53
2023/07/30 03:12:06;;;;;;;12.27;2.63;;;17.70;99.90;;;;;;4069192;29;20360;-54
2023/07/30 03:14:08;;;;;;;12.70;2.42;;;17.80;99.90;;;;;;4068910;29;20115;-54
2023/07/30 03:16:11;;;;;;;12.52;2.88;;;17.80;99.90;;;;;;4068951;29;20183;-54
2023/07/30 03:18:13;;;;;;;11.02;2.63;;;17.70;99.90;;;;;;4068568;29;20060;-54
2023/07/30 03:20:16;;;;;;;12.80;3.30;;;17.70;99.90;;;;;;4069154;29;20052;-54
2023/07/30 03:22:19;;;;;;;15.30;2.83;;;17.70;99.90;;;;;;4068601;29;20433;-54
2023/07/30 03:24:21;;;;;;;11.23;2.33;;;17.70;99.90;;;;;;4069054;29;20408;-54
2023/07/30 03:26:23;;;;;;;16.23;3.55;;;17.60;99.90;;;;;;4069269;29;20056;-54
2023/07/30 03:28:25;;;;;;;15.85;3.08;;;17.50;99.90;;;;;;4068280;29;20055;-54
2023/07/30 03:30:27;;;;;;;9.90;2.75;;;17.50;99.90;;;;;;4068755;29;20048;-53
2023/07/30 03:32:31;;;;;;;10.90;2.53;;;17.50;99.90;;;;;;4068808;29;20052;-53
2023/07/30 03:34:33;;;;;;;11.05;2.58;;;17.50;99.90;;;;;;4068565;29;20139;-54
2023/07/30 03:36:35;;;;;;;12.70;2.80;;;17.50;99.90;;;;;;4067723;29;20048;-54
2023/07/30 03:38:37;;;;;;;13.25;3.58;;;17.50;99.90;;;;;;4068558;29;20082;-53
2023/07/30 03:40:39;;;;;;;8.55;2.30;;;17.50;99.90;;;;;;4068805;29;20095;-54
2023/07/30 03:42:41;;;;;;;11.27;2.78;;;17.50;99.90;;;;;;4068568;29;20074;-59
2023/07/30 03:44:43;;;;;;;14.52;3.00;;;17.40;99.90;;;;;;4068928;29;20078;-58
2023/07/30 03:46:46;;;;;;;11.63;3.00;;;17.50;99.90;;;;;;4069145;29;20135;-54
2023/07/30 03:48:49;;;;;;;12.63;2.83;;;17.50;99.90;;;;;;4068956;29;20507;-55
2023/07/30 03:50:52;;;;;;;10.57;2.88;;;17.50;99.90;;;;;;4069119;29;20096;-54
2023/07/30 03:52:54;;;;;;;14.43;3.40;;;17.50;99.90;;;;;;4069427;29;20060;-55
2023/07/30 03:54:56;;;;;;;13.15;2.55;;;17.60;99.90;;;;;;4070003;29;20064;-55
2023/07/30 03:56:58;;;;;;;12.00;2.92;;;17.50;99.90;;;;;;4068535;29;20044;-54
2023/07/30 03:59:00;;;;;;;13.73;3.30;;;17.60;99.90;;;;;;4068580;29;20490;-54
2023/07/30 04:01:02;;;;;;;15.57;3.42;;;17.50;99.90;;;;;;4068186;29;20048;-55
2023/07/30 04:03:05;;;;;;;15.38;3.10;;;17.50;99.90;;;;;;4069060;29;20405;-54
2023/07/30 04:05:08;;;;;;;14.52;3.25;;;17.50;99.90;;;;;;4068360;29;20072;-54
2023/07/30 04:07:10;;;;;;;15.50;2.97;;;17.50;99.90;;;;;;4067619;29;20048;-55
2023/07/30 04:09:12;;;;;;;15.80;3.42;;;17.50;99.90;;;;;;4068627;29;20106;-53
2023/07/30 04:11:14;;;;;;;14.63;3.65;;;17.50;99.90;;;;;;4066928;29;20112;-54
2023/07/30 04:13:16;;;;;;;13.43;2.67;;;17.50;99.90;;;;;;4068245;29;20380;-53
2023/07/30 04:15:18;;;;;;;12.30;2.78;;;17.50;99.90;;;;;;4068175;29;20071;-53
2023/07/30 04:17:20;;;;;;;15.73;3.40;;;17.40;99.90;;;;;;4067381;29;20056;-54
2023/07/30 04:19:23;;;;;;;13.18;3.10;;;17.50;99.90;;;;;;4068024;29;20055;-53
2023/07/30 04:21:26;;;;;;;11.35;2.28;;;17.50;99.90;;;;;;4051207;29;20048;-54
2023/07/30 04:23:28;;;;;;;13.10;2.70;;;17.50;99.90;;;;;;4050981;29;20415;-53
2023/07/30 04:25:30;;;;;;;11.35;2.97;;;17.50;99.90;;;;;;4068002;29;20068;-53
2023/07/30 04:27:32;;;;;;;14.05;2.78;;;17.50;99.90;;;;;;4067606;29;20050;-54
2023/07/30 04:29:36;;;;;;;13.60;2.53;;;17.50;99.90;;;;;;4068749;29;20657;-54
2023/07/30 04:31:38;;;;;;;15.27;3.40;;;17.50;99.90;;;;;;4066905;29;20135;-53
2023/07/30 04:33:40;;;;;;;11.80;3.03;;;17.40;99.90;;;;;;4068029;29;20044;-54
2023/07/30 04:35:42;;;;;;;15.00;3.03;;;17.40;99.90;;;;;;4067934;29;20571;-54
2023/07/30 04:37:46;;;;;;;14.70;2.90;;;17.40;99.90;;;;;;4067307;29;20357;-53
2023/07/30 04:39:49;;;;;;;16.48;3.00;;;17.40;99.90;;;;;;4067980;29;20055;-53
2023/07/30 04:41:51;;;;;;;13.30;3.60;;;17.50;99.90;;;;;;4067985;29;20468;-53
2023/07/30 04:43:53;;;;;;;13.35;4.43;;;17.40;99.90;;;;;;4067823;29;20062;-53
2023/07/30 04:45:55;;;;;;;14.93;3.25;;;17.40;99.90;;;;;;4067922;29;20075;-53
2023/07/30 04:47:57;;;;;;;13.85;3.30;;;17.40;99.90;;;;;;4067489;29;20056;-53
2023/07/30 04:49:59;;;;;;;12.35;2.97;;;17.40;99.90;;;;;;4070811;29;20052;-53
2023/07/30 04:52:01;;;;;;;15.63;2.97;;;17.40;99.90;;;;;;4071705;29;20048;-53
2023/07/30 04:54:04;;;;;;;14.55;3.53;;;17.40;99.90;;;;;;4071243;29;20062;-55
2023/07/30 04:56:06;;;;;;;19.98;3.88;;;17.40;99.90;;;;;;4071221;29;20059;-55
2023/07/30 04:58:08;;;;;;;14.23;3.90;;;17.50;99.90;;;;;;4070391;29;20107;-54
2023/07/30 05:00:12;;;;;;;15.48;3.20;;;17.50;99.90;;;;;;4071016;29;20059;-53
2023/07/30 05:02:14;;;;;;;15.55;3.83;;;17.50;99.90;;;;;;4069931;29;20812;-54
2023/07/30 05:04:16;;;;;;;13.82;3.38;;;17.50;99.90;;;;;;4053597;29;20052;-53
2023/07/30 05:06:18;;;;;;;13.70;3.20;;;17.40;99.90;;;;;;4071105;29;20071;-53
2023/07/30 05:08:20;;;;;;;15.40;3.42;;;17.50;99.90;;;;;;4070257;29;20076;-54
2023/07/30 05:10:23;;;;;;;17.85;3.35;;;17.40;99.90;;;;;;4071168;29;20048;-54
2023/07/30 05:12:25;;;;;;;17.23;3.55;;;17.40;99.90;;;;;;4071409;29;20055;-55
2023/07/30 05:14:27;;;;;;;15.55;3.17;;;17.40;99.90;;;;;;4071033;29;20052;-54
2023/07/30 05:16:29;;;;;;;16.98;3.42;;;17.30;99.90;;;;;;4070916;29;20412;-54
2023/07/30 05:18:32;;;;;;;15.18;3.58;;;17.40;99.90;;;;;;4069576;29;20126;-54
2023/07/30 05:20:34;;;;;;;14.88;3.33;;;17.40;99.90;;;;;;4070795;29;20062;-54
2023/07/30 05:22:36;;;;;;;17.00;3.88;;;17.30;99.90;;;;;;4070434;29;20136;-54
2023/07/30 05:24:38;;;;;;;18.67;3.63;;;17.40;99.90;;;;;;4070519;29;20044;-53
2023/07/30 05:26:41;;;;;;;21.23;3.47;;;17.40;99.90;;;;;;4070612;29;20072;-53
2023/07/30 05:28:43;;;;;;;15.32;3.65;;;17.40;99.90;;;;;;4070033;29;20123;-55
2023/07/30 05:30:45;;;;;;;16.85;3.60;;;17.40;99.90;;;;;;4071105;29;20044;-55
2023/07/30 05:32:48;;;;;;;14.40;3.65;;;17.50;99.90;;;;;;4070743;29;20118;-55
2023/07/30 05:34:50;;;;;;;14.45;3.30;;;17.50;99.90;;;;;;4071300;29;20460;-58
2023/07/30 05:36:52;;;;;;;14.18;3.55;;;17.50;99.90;;;;;;4070870;29;20489;-56
2023/07/30 05:38:54;;;;;;;13.55;3.38;;;17.50;99.90;;;;;;4070138;29;20060;-55
2023/07/30 05:40:56;;;;;;;12.45;3.55;;;17.40;99.90;;;;;;4070593;29;20068;-54
2023/07/30 05:43:00;;;;;;;14.73;4.53;;;17.40;99.90;;;;;;4070460;29;20052;-53
2023/07/30 05:45:03;;;;;;;24.40;3.53;;;17.40;99.90;;;;;;4070216;29;20080;-54
2023/07/30 05:47:05;;;;;;;18.60;3.53;;;17.50;99.90;;;;;;4069342;29;20127;-54
2023/07/30 05:49:07;;;;;;;16.63;4.13;;;17.60;99.90;;;;;;4069172;29;20144;-54
2023/07/30 05:51:09;;;;;;;17.92;3.85;;;17.50;99.90;;;;;;4070154;29;20154;-53
2023/07/30 05:53:11;;;;;;;17.17;3.47;;;17.50;99.90;;;;;;4070217;29;20059;-53
2023/07/30 05:55:14;;;;;;;14.48;3.20;;;17.50;99.90;;;;;;4070824;29;20072;-55
2023/07/30 05:57:16;;;;;;;13.70;3.30;;;17.50;99.90;;;;;;4070188;29;20083;-54
2023/07/30 05:59:20;;;;;;;16.00;2.92;;;17.50;99.90;;;;;;4070118;29;20054;-54
2023/07/30 06:01:27;;;;;;;16.15;3.22;;;17.50;99.90;;;;;;4070203;29;20071;-54
2023/07/30 06:03:29;;;;;;;16.95;3.42;;;17.50;99.90;;;;;;4069628;29;20048;-54
2023/07/30 06:05:31;;;;;;;14.52;3.30;;;17.50;99.90;;;;;;4070295;29;20075;-53
2023/07/30 06:07:33;;;;;;;12.00;3.00;;;17.60;99.90;;;;;;4069476;29;20048;-54
2023/07/30 06:09:35;;;;;;;12.63;3.17;;;17.60;99.90;;;;;;4070000;29;20075;-53
2023/07/30 06:11:37;;;;;;;14.32;3.53;;;17.60;99.90;;;;;;4070215;29;20056;-55
2023/07/30 06:13:40;;;;;;;13.38;3.38;;;17.60;99.90;;;;;;4069802;29;20048;-53
2023/07/30 06:15:43;;;;;;;12.40;3.00;;;17.70;99.90;;;;;;4070162;29;20090;-53
2023/07/30 06:17:45;;;;;;;21.10;3.63;;;17.70;99.90;;;;;;4069653;29;20484;-58
2023/07/30 06:19:47;;;;;;;12.35;2.85;;;17.80;99.90;;;;;;4070304;29;20083;-54
2023/07/30 06:21:49;;;;;;;15.80;3.60;;;17.80;99.90;;;;;;4070020;29;20052;-54
2023/07/30 06:23:51;;;;;;;16.05;3.30;;;17.80;99.90;;;;;;4069920;29;20075;-53
2023/07/30 06:25:53;;;;;;;16.45;3.17;;;17.80;99.90;;;;;;4069758;29;20052;-54
2023/07/30 06:27:58;;;;;;;18.15;3.45;;;17.80;99.90;;;;;;4069351;29;20059;-53
2023/07/30 06:30:00;;;;;;;16.50;3.78;;;17.80;99.90;;;;;;4069786;29;20076;-54
2023/07/30 06:32:05;;;;;;;14.15;3.60;;;17.80;99.90;;;;;;4069767;29;20495;-54
2023/07/30 06:34:07;;;;;;;14.38;3.63;;;17.90;99.90;;;;;;4068703;29;20083;-54
2023/07/30 06:36:09;;;;;;;11.27;2.90;;;17.90;99.90;;;;;;4069663;29;20052;-54
2023/07/30 06:38:11;;;;;;;14.63;2.70;;;17.90;99.90;;;;;;4069188;29;20058;-54
2023/07/30 06:40:14;;;;;;;16.05;3.58;;;18.00;99.90;;;;;;4070197;29;20132;-54
2023/07/30 06:42:16;;;;;;;14.23;3.58;;;18.10;99.90;;;;;;4069810;29;20084;-54
2023/07/30 06:44:18;;;;;;;15.23;3.42;;;18.10;99.90;;;;;;4068322;29;20079;-53
2023/07/30 06:46:20;;;;;;;12.98;3.25;;;18.20;99.90;;;;;;4069271;29;20131;-54
2023/07/30 06:48:23;;;;;;;11.43;3.10;;;18.20;99.90;;;;;;4068805;29;20515;-54
2023/07/30 06:50:25;;;;;;;16.92;3.72;;;18.20;99.90;;;;;;4069409;29;20080;-54
2023/07/30 06:52:28;;;;;;;15.48;3.35;;;18.40;99.90;;;;;;4069457;29;20483;-54
2023/07/30 06:54:30;;;;;;;10.38;2.42;;;18.60;99.90;;;;;;4069401;29;20048;-54
2023/07/30 06:56:32;;;;;;;13.75;3.53;;;18.70;99.90;;;;;;4069433;29;20051;-54
2023/07/30 06:58:34;;;;;;;11.95;3.13;;;18.80;99.90;;;;;;4068533;29;20124;-54
2023/07/30 07:00:38;;;;;;;13.02;3.35;;;18.80;99.90;;;;;;4068212;29;20059;-53
2023/07/30 07:02:40;;;;;;;11.75;3.03;;;18.80;99.90;;;;;;4068609;29;20052;-54
2023/07/30 07:04:44;;;;;;;13.27;2.83;;;18.80;99.90;;;;;;4069337;29;20111;-54
2023/07/30 07:06:46;;;;;;;16.95;3.25;;;18.80;99.90;;;;;;4069684;29;20052;-56
2023/07/30 07:08:48;;;;;;;11.93;2.55;;;18.90;99.90;;;;;;4068453;29;20050;-54
2023/07/30 07:10:50;;;;;;;11.60;3.47;;;19.00;99.90;;;;;;4069515;29;20173;-54
2023/07/30 07:12:52;;;;;;;11.05;2.30;;;19.10;99.90;;;;;;4070036;29;20051;-55
2023/07/30 07:14:57;;;;;;;12.30;2.88;;;19.20;99.90;;;;;;4070112;29;20135;-56
2023/07/30 07:17:00;;;;;;;8.48;2.50;;;19.20;99.90;;;;;;4069521;29;20480;-57
2023/07/30 07:19:02;;;;;;;10.63;2.55;;;19.30;99.90;;;;;;4068593;29;20052;-54
2023/07/30 07:21:06;;;;;;;10.98;2.63;;;19.30;99.90;;;;;;4069001;29;20052;-55
2023/07/30 07:23:08;;;;;;;11.20;2.92;;;19.40;99.30;;;;;;4069123;29;20056;-54
2023/07/30 07:25:14;;;;;;;11.25;3.13;;;19.60;99.20;;;;;;4068812;29;20051;-54
2023/07/30 07:27:16;;;;;;;11.18;2.95;;;19.70;99.30;;;;;;4068963;29;20052;-54
2023/07/30 07:29:18;;;;;;;13.00;3.13;;;19.70;99.40;;;;;;4066836;29;20055;-54
2023/07/30 07:31:20;;;;;;;13.13;2.72;;;19.70;99.00;;;;;;4069001;29;20048;-54
2023/07/30 07:33:22;;;;;;;11.93;2.97;;;19.90;98.60;;;;;;4068629;29;20052;-54
2023/07/30 07:35:24;;;;;;;13.20;3.60;;;20.10;98.60;;;;;;4068785;29;20174;-53
2023/07/30 07:37:28;;;;;;;13.32;3.40;;;20.10;97.90;;;;;;4068277;29;20122;-57
2023/07/30 07:39:30;;;;;;;12.15;2.70;;;20.20;98.30;;;;;;4068662;29;20445;-54
2023/07/30 07:41:32;;;;;;;14.02;3.20;;;20.00;98.20;;;;;;4068813;29;20437;-54
2023/07/30 07:43:34;;;;;;;11.65;2.50;;;19.90;97.80;;;;;;4068315;29;20130;-54
2023/07/30 07:45:37;;;;;;;16.02;3.40;;;19.90;98.10;;;;;;4069131;29;20076;-56
2023/07/30 07:47:39;;;;;;;11.45;2.83;;;19.90;98.00;;;;;;4068119;29;20047;-51
2023/07/30 07:49:41;;;;;;;12.32;2.78;;;19.70;97.30;;;;;;4068478;29;20056;-51
2023/07/30 07:51:43;;;;;;;10.23;2.78;;;19.70;97.80;;;;;;4068350;29;20048;-51
2023/07/30 07:53:46;;;;;;;12.18;2.65;;;19.70;97.70;;;;;;4068679;29;20457;-53
2023/07/30 07:55:49;;;;;;;9.50;2.63;;;19.90;97.40;;;;;;4068697;29;20171;-53
2023/07/30 07:57:51;;;;;;;9.75;2.88;;;20.10;97.80;;;;;;4067447;29;20083;-53
2023/07/30 07:59:53;;;;;;;11.27;2.67;;;20.30;97.50;;;;;;4068602;29;20130;-54
2023/07/30 08:01:55;;;;;;;9.63;2.70;;;20.30;97.50;;;;;;4068418;29;20052;-54
2023/07/30 08:03:57;;;;;;;8.88;2.60;;;20.10;96.80;;;;;;4068329;29;20131;-54
2023/07/30 08:05:59;;;;;;;11.43;2.85;;;20.10;97.40;;;;;;4068211;29;20048;-60
2023/07/30 08:08:01;;;;;;;10.60;3.05;;;20.20;97.60;;;;;;4067893;29;20051;-53
2023/07/30 08:10:06;;;;;;;12.13;2.88;;;20.30;97.60;;;;;;4068139;29;20445;-53
2023/07/30 08:12:08;;;;;;;12.70;2.42;;;20.20;97.10;;;;;;4068106;29;20131;-53
2023/07/30 08:14:10;;;;;;;8.68;2.65;;;20.20;96.80;;;;;;4068335;29;20514;-51
2023/07/30 08:16:13;;;;;;;10.52;2.40;;;20.20;97.00;;;;;;4068246;29;20048;-51
2023/07/30 08:18:15;;;;;;;9.40;2.53;;;20.30;97.10;;;;;;4067631;29;20072;-51
2023/07/30 08:20:17;;;;;;;8.07;2.58;;;20.50;96.80;;;;;;4051309;29;20079;-51
2023/07/30 08:22:19;;;;;;;9.65;2.63;;;20.60;96.40;;;;;;4067893;29;20059;-51
2023/07/30 08:24:21;;;;;;;9.32;2.28;;;21.00;96.40;;;;;;4067111;29;20052;-50
2023/07/30 08:26:25;;;;;;;8.60;2.42;;;21.10;96.30;;;;;;4068018;29;20048;-51
2023/07/30 08:28:27;;;;;;;8.93;2.80;;;21.30;95.40;;;;;;4067238;29;20059;-55
2023/07/30 08:30:29;;;;;;;10.32;2.15;;;21.50;95.40;;;;;;4068121;29;20048;-53
2023/07/30 08:32:33;;;;;;;10.07;3.00;;;21.50;94.90;;;;;;4067994;29;20495;-53
2023/07/30 08:34:35;;;;;;;11.35;3.10;;;21.40;95.40;;;;;;4068282;29;20060;-53
2023/07/30 08:36:38;;;;;;;12.20;3.10;;;21.50;95.50;;;;;;4067024;29;20161;-53
2023/07/30 08:38:40;;;;;;;9.48;2.40;;;21.60;95.30;;;;;;4067475;29;20044;-55
2023/07/30 08:40:42;;;;;;;9.02;2.60;;;21.40;95.10;;;;;;4068128;29;20082;-53
2023/07/30 08:42:46;;;;;;;8.13;2.33;;;21.50;95.30;;;;;;4050757;29;20053;-53
2023/07/30 08:44:49;;;;;;;10.45;2.30;;;21.60;95.20;;;;;;4067898;29;20045;-53
2023/07/30 08:46:51;;;;;;;11.38;2.85;;;21.60;95.00;;;;;;4067998;29;20071;-53
2023/07/30 08:48:57;;;;;;;8.40;2.28;;;21.50;94.90;;;;;;4067252;29;20044;-55
2023/07/30 08:51:00;;;;;;;8.85;2.40;;;21.60;94.90;;;;;;4068225;29;20055;-54
2023/07/30 08:53:03;;;;;;;11.85;2.45;;;21.40;95.00;;;;;;4067949;29;20055;-53
2023/07/30 08:55:07;;;;;;;9.10;2.65;;;21.40;95.00;;;;;;4067859;29;20521;-53
2023/07/30 08:57:10;;;;;;;8.30;2.50;;;21.30;95.00;;;;;;4067351;29;20079;-51
2023/07/30 08:59:15;;;;;;;10.82;2.55;;;21.30;95.20;;;;;;4067406;29;20051;-52
2023/07/30 09:01:19;;;;;;;10.75;2.50;;;21.50;94.90;;;;;;4051601;29;20135;-53
2023/07/30 09:03:24;;;;;;;15.63;4.03;;;21.40;95.00;;;;;;4068161;29;20052;-57
2023/07/30 09:05:29;;;;;;;11.55;3.92;;;21.40;94.80;;;;;;4067925;29;20423;-55
2023/07/30 09:07:31;;;;;;;8.52;2.70;;;21.30;94.50;;;;;;4067936;29;20048;-52
2023/07/30 09:09:33;;;;;;;12.35;3.10;;;21.30;94.10;;;;;;4067439;29;20045;-54
2023/07/30 09:11:36;;;;;;;8.75;3.15;;;21.20;93.80;;;;;;4067615;29;20052;-53
2023/07/30 09:13:39;;;;;;;8.05;2.55;;;21.40;94.40;;;;;;4067662;29;20051;-53
2023/07/30 09:15:42;;;;;;;12.23;3.15;;;21.30;94.50;;;;;;4067817;29;20523;-51
2023/07/30 09:17:45;;;;;;;8.98;3.17;;;21.30;94.50;;;;;;4050624;29;20124;-51
2023/07/30 09:19:47;;;;;;;11.93;3.13;;;21.30;94.60;;;;;;4067629;29;20099;-53
2023/07/30 09:21:49;;;;;;;13.40;3.22;;;21.30;94.50;;;;;;4067446;29;20051;-53
2023/07/30 09:23:51;;;;;;;10.60;2.63;;;21.30;94.00;;;;;;4067524;29;20107;-53
2023/07/30 09:25:58;;;;;;;9.48;2.85;;;21.30;94.30;;;;;;4051754;29;20080;-54
2023/07/30 09:28:00;;;;;;;7.63;3.08;;;21.50;94.40;;;;;;4051389;29;20080;-52
2023/07/30 09:30:06;;;;;;;10.65;2.55;;;21.50;93.80;;;;;;4051989;29;20059;-54
2023/07/30 09:32:10;;;;;;;8.40;2.70;;;21.50;93.40;;;;;;4052058;29;20051;-53
2023/07/30 09:34:16;;;;;;;6.93;2.90;;;21.70;93.60;;;;;;4051939;29;20068;-54
2023/07/30 09:36:19;;;;;;;8.20;2.90;;;21.80;93.50;;;;;;4054698;29;20111;-53
2023/07/30 09:38:21;;;;;;;8.85;2.38;;;21.90;93.40;;;;;;4054134;29;20087;-54
2023/07/30 09:40:31;;;;;;;6.43;2.75;;;22.00;93.50;;;;;;4054556;29;20052;-53
2023/07/30 09:42:35;;;;;;;8.35;2.80;;;22.00;93.40;;;;;;4054659;29;20076;-53
2023/07/30 09:44:39;;;;;;;7.95;2.45;;;21.90;93.30;;;;;;4054860;29;20048;-52
2023/07/30 09:46:46;;;;;;;8.30;2.30;;;21.80;93.30;;;;;;4054947;29;20136;-54
2023/07/30 09:48:49;;;;;;;9.93;3.08;;;21.80;93.20;;;;;;4053983;29;20052;-53
2023/07/30 09:50:52;;;;;;;7.60;2.63;;;21.70;93.50;;;;;;4054805;29;20135;-53
2023/07/30 09:52:54;;;;;;;13.23;3.40;;;21.60;93.60;;;;;;4054664;29;20053;-55
2023/07/30 09:54:57;;;;;;;10.02;2.60;;;21.50;93.60;;;;;;4054622;29;20084;-54
2023/07/30 09:56:59;;;;;;;8.40;2.70;;;21.40;93.60;;;;;;4054587;29;20048;-50
2023/07/30 09:59:01;;;;;;;7.70;2.70;;;21.30;93.50;;;;;;4053766;29;20449;-51
2023/07/30 10:01:04;;;;;;;9.40;2.60;;;21.30;93.80;;;;;;4054536;29;20040;-50
2023/07/30 10:03:07;;;;;;;13.05;2.90;;;21.30;93.10;;;;;;4054327;29;20057;-51
2023/07/30 10:05:14;;;;;;;9.98;2.67;;;21.30;93.70;;;;;;4054405;29;20057;-52
2023/07/30 10:07:21;;;;;;;6.75;2.25;;;21.20;93.20;;;;;;4054620;29;20098;-52
2023/07/30 10:09:28;;;;;;;10.88;3.15;;;21.10;93.50;;;;;;4053192;29;20055;-52
2023/07/30 10:11:31;;;;;;;9.38;2.05;;;21.00;93.30;;;;;;4054432;29;20045;-52
2023/07/30 10:13:33;;;;;;;10.30;3.00;;;21.00;93.10;;;;;;4037621;29;20067;-52
2023/07/30 10:15:37;;;;;;;10.07;3.97;;;21.10;93.40;;;;;;4054452;29;20045;-52
2023/07/30 10:17:39;;;;;;;7.70;3.05;;;21.20;93.10;;;;;;4054331;29;20059;-59
2023/07/30 10:19:41;;;;;;;7.10;2.53;;;21.20;92.60;;;;;;4053636;29;20120;-51
2023/07/30 10:21:45;;;;;;;9.88;2.35;;;21.40;92.80;;;;;;4053989;29;20056;-54
2023/07/30 10:23:49;;;;;;;8.93;2.45;;;21.50;92.10;;;;;;4054313;29;20056;-52
2023/07/30 10:25:52;;;;;;;;;;;21.60;92.00;;;;;;4069951;29;20040;-53
2023/07/30 10:27:54;;;;;;;7.28;2.35;;;21.70;91.50;;;;;;4069489;29;20013;-53
2023/07/30 10:30:10;;;;;;;6.60;2.40;;;21.70;92.80;;;;;;4069767;29;20052;-58
2023/07/30 10:32:12;;;;;;;7.53;2.40;;;21.70;91.40;;;;;;4070388;29;20442;-60
2023/07/30 10:34:15;;;;;;;10.63;2.65;;;22.00;92.00;;;;;;4071418;29;20059;-55